Time;durP1;ratioP1;P1;durP2;ratioP2;P2;SDS_P1;SDS_P2;PMS_P1;PMS_P2;Temp;Humidity;BMP_temperature;BMP_pressure;BME280_temperature;BME280_humidity;BME280_pressure;Samples;Min_cycle;Max_cycle;Signal;HPM_P1;HPM_P2
2022/03/20 00:01:21;;;;;;;18.60;12.20;;;;;;;;;;5044549;28;20082;-52
2022/03/20 00:03:47;;;;;;;22.67;13.00;;;;;;;;;;5040972;28;20175;-52
2022/03/20 00:06:13;;;;;;;27.08;14.48;;;;;;;;;;5044061;28;20111;-49
2022/03/20 00:08:39;;;;;;;21.33;12.45;;;;;;;;;;5045192;28;20037;-50
2022/03/20 00:11:07;;;;;;;24.60;13.35;;;;;;;;;;5043499;28;20380;-52
2022/03/20 00:13:33;;;;;;;16.23;11.00;;;;;;;;;;5043726;28;20029;-49
2022/03/20 00:15:59;;;;;;;19.00;10.27;;;;;;;;;;5044829;28;20028;-48
2022/03/20 00:18:26;;;;;;;17.27;10.25;;;;;;;;;;5043993;28;20107;-49
2022/03/20 00:20:57;;;;;;;20.30;11.57;;;;;;;;;;5044395;28;20071;-53
2022/03/20 00:23:23;;;;;;;16.83;10.35;;;;;;;;;;5038160;28;20055;-49
2022/03/20 00:25:50;;;;;;;15.93;9.98;;;;;;;;;;5025029;28;20026;-50
2022/03/20 00:28:17;;;;;;;22.80;12.95;;;;;;;;;;5042101;28;20578;-49
2022/03/20 00:30:44;;;;;;;19.98;11.50;;;;;;;;;;5044145;28;20482;-49
2022/03/20 00:33:10;;;;;;;18.98;11.32;;;;;;;;;;5044807;28;20041;-49
2022/03/20 00:35:36;;;;;;;19.90;11.25;;;;;;;;;;5039963;28;20021;-49
2022/03/20 00:38:02;;;;;;;18.40;11.60;;;;;;;;;;5024013;28;20140;-49
2022/03/20 00:40:28;;;;;;;20.48;11.55;;;;;;;;;;5023707;28;20037;-53
2022/03/20 00:42:54;;;;;;;19.70;11.95;;;;;;;;;;5038026;28;20160;-52
2022/03/20 00:45:20;;;;;;;21.48;11.82;;;;;;;;;;5043638;28;20036;-52
2022/03/20 00:47:48;;;;;;;18.05;10.48;;;;;;;;;;5044886;28;20025;-51
2022/03/20 00:50:14;;;;;;;17.38;10.80;;;;;;;;;;5042569;28;20039;-53
2022/03/20 00:52:40;;;;;;;17.48;10.80;;;;;;;;;;5043908;28;20092;-49
2022/03/20 00:55:06;;;;;;;17.98;10.57;;;;;;;;;;5043010;28;20695;-49
2022/03/20 00:57:32;;;;;;;13.75;9.60;;;;;;;;;;5043825;28;20407;-48
2022/03/20 00:59:59;;;;;;;15.52;9.90;;;;;;;;;;5043837;28;20025;-50
2022/03/20 01:02:25;;;;;;;21.00;10.40;;;;;;;;;;5043810;28;20029;-49
2022/03/20 01:04:52;;;;;;;18.92;10.02;;;;;;;;;;5042388;28;20060;-52
2022/03/20 01:07:18;;;;;;;16.95;9.80;;;;;;;;;;5043919;28;20036;-49
2022/03/20 01:09:44;;;;;;;20.27;9.93;;;;;;;;;;5049084;28;20490;-48
2022/03/20 01:12:11;;;;;;;18.92;9.52;;;;;;;;;;5049759;28;20057;-50
2022/03/20 01:14:37;;;;;;;17.20;9.88;;;;;;;;;;5042643;28;20021;-49
2022/03/20 01:17:04;;;;;;;17.00;9.98;;;;;;;;;;5044484;28;20063;-50
2022/03/20 01:19:31;;;;;;;15.40;9.18;;;;;;;;;;5042579;28;20021;-48
2022/03/20 01:21:59;;;;;;;16.63;9.70;;;;;;;;;;5040942;28;20044;-50
2022/03/20 01:24:28;;;;;;;19.17;10.05;;;;;;;;;;5043419;28;20029;-49
2022/03/20 01:26:54;;;;;;;16.15;8.88;;;;;;;;;;5041123;28;20429;-50
2022/03/20 01:29:21;;;;;;;23.52;8.77;;;;;;;;;;5044176;28;20029;-51
2022/03/20 01:31:49;;;;;;;18.08;9.52;;;;;;;;;;5044360;28;20419;-50
2022/03/20 01:34:15;;;;;;;13.98;9.35;;;;;;;;;;5029705;28;20136;-49
2022/03/20 01:36:42;;;;;;;16.23;9.38;;;;;;;;;;5032800;28;20029;-53
2022/03/20 01:39:08;;;;;;;16.15;9.60;;;;;;;;;;5037086;28;20032;-50
2022/03/20 01:41:34;;;;;;;14.02;8.73;;;;;;;;;;5043687;28;20091;-50
2022/03/20 01:44:01;;;;;;;16.52;8.38;;;;;;;;;;5046202;28;20036;-49
2022/03/20 01:46:29;;;;;;;18.05;10.43;;;;;;;;;;5041885;28;20029;-50
2022/03/20 01:48:55;;;;;;;15.52;8.27;;;;;;;;;;5025633;28;20112;-50
2022/03/20 01:54:07;;;;;;;16.58;8.52;;;;;;;;;;5029779;28;20577;-53
2022/03/20 01:56:33;;;;;;;15.50;9.40;;;;;;;;;;5040968;28;20075;-50
2022/03/20 01:59:03;;;;;;;16.00;9.43;;;;;;;;;;5029499;28;20052;-50
2022/03/20 02:01:32;;;;;;;11.88;7.75;;;;;;;;;;5044709;28;20118;-50
2022/03/20 02:03:58;;;;;;;15.85;8.82;;;;;;;;;;5029460;28;20026;-54
2022/03/20 02:06:26;;;;;;;15.45;9.50;;;;;;;;;;5029394;28;20033;-50
2022/03/20 02:08:54;;;;;;;16.10;9.32;;;;;;;;;;5030128;28;20025;-50
2022/03/20 02:11:21;;;;;;;17.25;9.05;;;;;;;;;;5029638;28;20067;-50
2022/03/20 02:13:48;;;;;;;16.42;9.13;;;;;;;;;;5029280;28;20018;-51
2022/03/20 02:16:14;;;;;;;17.00;8.80;;;;;;;;;;5028685;28;20046;-51
2022/03/20 02:18:40;;;;;;;13.55;8.40;;;;;;;;;;5028741;28;20036;-52
2022/03/20 02:21:06;;;;;;;16.75;8.52;;;;;;;;;;5029144;28;20034;-52
2022/03/20 02:23:34;;;;;;;19.90;8.98;;;;;;;;;;5028999;28;20032;-53
2022/03/20 02:26:03;;;;;;;17.67;8.52;;;;;;;;;;5039804;28;20029;-50
2022/03/20 02:28:29;;;;;;;15.85;9.15;;;;;;;;;;5047678;28;20443;-50
2022/03/20 02:30:55;;;;;;;15.63;10.05;;;;;;;;;;5048767;28;20068;-50
2022/03/20 02:33:23;;;;;;;18.60;9.55;;;;;;;;;;5049236;28;20036;-53
2022/03/20 02:35:50;;;;;;;18.17;9.52;;;;;;;;;;5049174;28;20460;-55
2022/03/20 02:38:18;;;;;;;16.80;9.65;;;;;;;;;;5031117;28;20033;-55
2022/03/20 02:40:45;;;;;;;17.80;9.50;;;;;;;;;;5028756;28;20040;-50
2022/03/20 02:43:11;;;;;;;16.58;9.05;;;;;;;;;;5028624;28;20131;-50
2022/03/20 02:45:37;;;;;;;16.75;9.07;;;;;;;;;;5039312;28;20407;-49
2022/03/20 02:48:06;;;;;;;14.65;8.45;;;;;;;;;;5047064;28;20035;-50
2022/03/20 02:50:34;;;;;;;18.98;9.50;;;;;;;;;;5047259;28;20045;-55
2022/03/20 02:53:02;;;;;;;17.17;8.80;;;;;;;;;;5048635;28;20025;-52
2022/03/20 02:55:29;;;;;;;16.25;9.65;;;;;;;;;;5048438;28;20033;-53
2022/03/20 02:57:57;;;;;;;15.93;8.07;;;;;;;;;;5047478;28;20039;-52
2022/03/20 03:00:25;;;;;;;13.50;7.28;;;;;;;;;;5048566;28;20480;-52
2022/03/20 03:02:52;;;;;;;15.25;8.90;;;;;;;;;;5048652;28;20058;-53
2022/03/20 03:05:19;;;;;;;15.73;9.02;;;;;;;;;;5046905;28;20468;-54
2022/03/20 03:13:17;;;;;;;12.77;7.75;;;;;;;;;;5028274;28;20087;-54
2022/03/20 03:15:43;;;;;;;15.38;8.95;;;;;;;;;;5028237;28;20022;-53
2022/03/20 03:18:09;;;;;;;16.15;8.82;;;;;;;;;;5042333;28;20104;-53
2022/03/20 03:20:36;;;;;;;17.27;8.38;;;;;;;;;;5047517;28;20032;-52
2022/03/20 03:23:02;;;;;;;15.52;8.70;;;;;;;;;;5048147;28;20028;-53
2022/03/20 03:25:28;;;;;;;12.90;7.78;;;;;;;;;;5047590;28;20075;-53
2022/03/20 03:27:55;;;;;;;16.38;8.23;;;;;;;;;;5035331;28;20033;-53
2022/03/20 03:30:21;;;;;;;14.82;7.85;;;;;;;;;;5047707;28;20048;-51
2022/03/20 03:32:47;;;;;;;12.80;7.63;;;;;;;;;;5047431;28;20021;-53
2022/03/20 03:38:00;;;;;;;14.48;7.70;;;;;;;;;;5033857;28;20041;-50
2022/03/20 03:40:26;;;;;;;16.05;7.43;;;;;;;;;;5027362;28;20444;-52
2022/03/20 03:42:53;;;;;;;11.63;6.82;;;;;;;;;;5028455;28;20677;-53
2022/03/20 03:45:20;;;;;;;12.75;7.10;;;;;;;;;;5027646;28;20519;-51
2022/03/20 03:47:46;;;;;;;10.32;7.00;;;;;;;;;;5033355;28;20028;-53
2022/03/20 03:50:12;;;;;;;13.50;7.15;;;;;;;;;;5046215;28;20119;-51
2022/03/20 03:52:38;;;;;;;11.88;6.85;;;;;;;;;;5047047;28;20021;-54
2022/03/20 03:55:05;;;;;;;10.60;6.40;;;;;;;;;;5047422;28;20043;-52
2022/03/20 03:57:31;;;;;;;11.55;6.00;;;;;;;;;;5044488;28;20021;-53
2022/03/20 03:59:58;;;;;;;7.88;5.32;;;;;;;;;;5045634;28;20420;-53
2022/03/20 04:02:24;;;;;;;9.02;5.45;;;;;;;;;;5047127;28;20091;-52
2022/03/20 04:04:51;;;;;;;11.57;5.43;;;;;;;;;;5047400;28;20037;-53
2022/03/20 04:07:17;;;;;;;9.10;5.28;;;;;;;;;;5035962;28;20029;-53
2022/03/20 04:09:46;;;;;;;9.77;5.85;;;;;;;;;;5026931;28;20041;-51
2022/03/20 04:12:13;;;;;;;9.98;5.57;;;;;;;;;;5027215;28;20033;-49
2022/03/20 04:14:40;;;;;;;9.85;5.03;;;;;;;;;;5026570;28;20041;-49
2022/03/20 04:17:06;;;;;;;6.47;4.53;;;;;;;;;;5028813;28;20025;-49
2022/03/20 04:19:32;;;;;;;6.90;3.80;;;;;;;;;;5046443;28;20029;-53
2022/03/20 04:22:00;;;;;;;6.88;4.68;;;;;;;;;;5046766;28;20025;-53
2022/03/20 04:24:26;;;;;;;9.95;4.63;;;;;;;;;;5044672;28;20059;-52
2022/03/20 04:26:54;;;;;;;9.70;5.22;;;;;;;;;;5047431;28;20036;-52
2022/03/20 04:29:20;;;;;;;8.38;4.95;;;;;;;;;;5047587;28;20078;-52
2022/03/20 04:31:47;;;;;;;8.38;4.07;;;;;;;;;;5039310;28;20072;-53
2022/03/20 04:34:13;;;;;;;6.03;4.07;;;;;;;;;;5029251;28;20078;-53
2022/03/20 04:36:39;;;;;;;9.70;4.65;;;;;;;;;;5046358;28;20487;-49
2022/03/20 04:39:05;;;;;;;7.72;4.53;;;;;;;;;;5046721;28;20147;-51
2022/03/20 04:41:31;;;;;;;8.85;4.72;;;;;;;;;;5040263;28;20096;-50
2022/03/20 04:43:58;;;;;;;6.50;3.90;;;;;;;;;;5026666;28;20037;-51
2022/03/20 04:46:24;;;;;;;6.07;3.80;;;;;;;;;;5027400;28;20033;-49
2022/03/20 04:59:50;;;;;;;4.45;3.20;;;;;;;;;;5026641;28;19916;-52
2022/03/20 05:02:16;;;;;;;4.72;3.00;;;;;;;;;;5032174;28;20029;-53
2022/03/20 05:04:42;;;;;;;6.18;3.35;;;;;;;;;;5034217;28;20674;-53
2022/03/20 05:07:08;;;;;;;5.72;2.97;;;;;;;;;;5026468;28;20029;-51
2022/03/20 05:15:05;;;;;;;7.63;5.00;;;;;;;;;;5026198;28;20118;-50
2022/03/20 05:17:31;;;;;;;9.43;4.70;;;;;;;;;;5025393;28;20029;-50
2022/03/20 05:19:57;;;;;;;6.80;3.80;;;;;;;;;;5026210;28;20543;-51
2022/03/20 05:22:23;;;;;;;6.80;4.13;;;;;;;;;;5026620;28;20520;-49
2022/03/20 05:24:50;;;;;;;7.63;4.70;;;;;;;;;;5036198;28;20033;-50
2022/03/20 05:27:16;;;;;;;8.73;4.97;;;;;;;;;;5049098;28;20529;-50
2022/03/20 05:29:42;;;;;;;8.15;5.00;;;;;;;;;;5049955;28;20388;-51
2022/03/20 05:32:08;;;;;;;7.45;4.47;;;;;;;;;;5050066;28;20029;-49
2022/03/20 05:34:35;;;;;;;7.38;4.13;;;;;;;;;;5043045;28;20031;-50
2022/03/20 05:37:01;;;;;;;5.53;3.60;;;;;;;;;;5029798;28;20396;-50
2022/03/20 05:39:28;;;;;;;5.95;4.13;;;;;;;;;;5028554;28;20108;-52
2022/03/20 05:41:54;;;;;;;5.35;3.90;;;;;;;;;;5030357;28;20026;-53
2022/03/20 05:44:24;;;;;;;4.82;3.30;;;;;;;;;;5046090;28;20029;-50
2022/03/20 05:46:52;;;;;;;7.18;4.43;;;;;;;;;;5050109;28;20033;-51
2022/03/20 05:49:18;;;;;;;8.35;5.00;;;;;;;;;;5046158;28;20115;-52
2022/03/20 05:51:46;;;;;;;9.50;5.22;;;;;;;;;;5029574;28;20487;-53
2022/03/20 05:54:12;;;;;;;9.00;4.30;;;;;;;;;;5029893;28;20087;-52
2022/03/20 05:59:24;;;;;;;6.40;4.28;;;;;;;;;;5029738;28;20453;-52
2022/03/20 06:01:53;;;;;;;7.13;4.35;;;;;;;;;;5030174;28;20049;-52
2022/03/20 06:04:20;;;;;;;9.30;4.13;;;;;;;;;;5029492;28;20067;-52
2022/03/20 06:06:48;;;;;;;6.35;4.20;;;;;;;;;;5029182;28;20041;-52
2022/03/20 06:09:14;;;;;;;5.55;3.72;;;;;;;;;;5029200;28;20033;-52
2022/03/20 06:11:40;;;;;;;5.75;3.60;;;;;;;;;;5028882;28;20061;-52
2022/03/20 06:14:08;;;;;;;6.40;4.10;;;;;;;;;;5029455;28;20018;-53
2022/03/20 06:16:34;;;;;;;8.63;4.90;;;;;;;;;;5029090;28;20043;-53
2022/03/20 06:19:00;;;;;;;6.68;4.43;;;;;;;;;;5029311;28;20017;-53
2022/03/20 06:21:27;;;;;;;6.63;4.32;;;;;;;;;;5043998;28;20112;-53
2022/03/20 06:23:54;;;;;;;8.98;4.63;;;;;;;;;;5050004;28;20039;-51
2022/03/20 06:26:21;;;;;;;7.40;3.78;;;;;;;;;;5048753;28;20060;-52
2022/03/20 06:28:48;;;;;;;7.18;4.30;;;;;;;;;;5048750;28;20033;-54
2022/03/20 06:31:15;;;;;;;6.72;4.45;;;;;;;;;;5046840;28;20335;-53
2022/03/20 06:33:42;;;;;;;8.10;4.13;;;;;;;;;;5048712;28;20463;-52
2022/03/20 06:36:08;;;;;;;8.15;4.60;;;;;;;;;;5048991;28;20056;-52
2022/03/20 06:38:35;;;;;;;10.45;5.40;;;;;;;;;;5048038;28;20542;-50
2022/03/20 06:41:01;;;;;;;7.70;4.85;;;;;;;;;;5047012;28;20078;-49
2022/03/20 06:43:30;;;;;;;8.25;4.90;;;;;;;;;;5048508;28;20086;-50
2022/03/20 06:45:56;;;;;;;10.43;5.70;;;;;;;;;;5036391;28;20408;-51
2022/03/20 06:48:22;;;;;;;7.18;4.20;;;;;;;;;;5035751;28;20033;-51
2022/03/20 06:50:48;;;;;;;5.85;4.10;;;;;;;;;;5037777;28;20059;-50
2022/03/20 06:53:17;;;;;;;9.38;4.20;;;;;;;;;;5027599;28;20037;-51
2022/03/20 06:55:44;;;;;;;7.32;4.10;;;;;;;;;;5030156;28;20026;-50
2022/03/20 06:58:11;;;;;;;6.30;4.00;;;;;;;;;;5047004;28;20096;-50
2022/03/20 07:00:38;;;;;;;5.78;3.95;;;;;;;;;;5027522;28;20417;-50
2022/03/20 07:03:06;;;;;;;7.40;4.45;;;;;;;;;;5036457;28;20037;-52
2022/03/20 07:05:33;;;;;;;6.15;3.92;;;;;;;;;;5047155;28;20104;-50
2022/03/20 07:08:04;;;;;;;5.55;3.70;;;;;;;;;;5040166;28;20029;-50
2022/03/20 07:10:30;;;;;;;6.60;3.60;;;;;;;;;;5026954;28;20493;-51
2022/03/20 07:15:42;;;;;;;5.68;3.97;;;;;;;;;;5026942;28;20040;-53
2022/03/20 07:18:12;;;;;;;4.07;2.90;;;;;;;;;;5026919;28;20021;-49
2022/03/20 07:20:39;;;;;;;4.13;3.13;;;;;;;;;;5027441;28;20030;-52
2022/03/20 07:23:09;;;;;;;5.63;2.83;;;;;;;;;;5033673;28;20037;-53
2022/03/20 07:31:05;;;;;;;5.43;3.60;;;;;;;;;;5030904;28;20088;-52
2022/03/20 07:33:31;;;;;;;5.20;3.22;;;;;;;;;;5027934;28;20049;-52
2022/03/20 07:35:58;;;;;;;6.53;4.38;;;;;;;;;;5028263;28;20041;-53
2022/03/20 07:38:24;;;;;;;5.38;3.60;;;;;;;;;;5036751;28;20033;-53
2022/03/20 07:40:50;;;;;;;8.57;5.50;;;;;;;;;;5031078;28;20473;-52
2022/03/20 07:43:16;;;;;;;7.28;4.70;;;;;;;;;;5029763;28;20554;-53
2022/03/20 07:45:43;;;;;;;4.95;4.07;;;;;;;;;;5039845;28;20475;-53
2022/03/20 07:48:09;;;;;;;10.00;5.38;;;;;;;;;;5053810;28;20103;-53
2022/03/20 07:50:36;;;;;;;9.18;5.05;;;;;;;;;;5027309;28;20033;-51
2022/03/20 07:53:02;;;;;;;7.32;4.75;;;;;;;;;;5026183;28;20057;-53
2022/03/20 07:55:28;;;;;;;9.18;6.07;;;;;;;;;;5038662;28;20598;-51
2022/03/20 07:57:55;;;;;;;10.05;6.03;;;;;;;;;;5045109;28;20017;-53
2022/03/20 08:00:22;;;;;;;9.77;5.95;;;;;;;;;;5043132;28;20126;-50
2022/03/20 08:02:48;;;;;;;9.68;5.85;;;;;;;;;;5029671;28;20061;-52
2022/03/20 08:05:15;;;;;;;9.32;5.95;;;;;;;;;;5046286;28;20040;-52
2022/03/20 08:07:43;;;;;;;8.90;5.78;;;;;;;;;;5027056;28;20021;-53
2022/03/20 08:10:10;;;;;;;9.88;6.32;;;;;;;;;;5026941;28;20473;-51
2022/03/20 08:12:37;;;;;;;12.23;6.10;;;;;;;;;;5034992;28;20032;-50
2022/03/20 08:15:04;;;;;;;12.23;7.25;;;;;;;;;;5027376;28;20071;-52
2022/03/20 08:17:30;;;;;;;13.30;6.80;;;;;;;;;;5037678;28;20029;-50
2022/03/20 08:19:56;;;;;;;9.85;6.50;;;;;;;;;;5028309;28;20038;-53
2022/03/20 08:22:22;;;;;;;7.82;5.47;;;;;;;;;;5030839;28;20079;-51
2022/03/20 08:24:48;;;;;;;9.30;6.05;;;;;;;;;;5034480;28;20067;-50
2022/03/20 08:27:15;;;;;;;9.15;5.80;;;;;;;;;;5037829;28;20569;-52
2022/03/20 08:29:42;;;;;;;7.53;5.05;;;;;;;;;;5030713;28;20709;-50
2022/03/20 08:32:08;;;;;;;9.25;6.35;;;;;;;;;;5032987;28;20032;-51
2022/03/20 08:34:35;;;;;;;10.18;5.80;;;;;;;;;;5039684;28;20046;-51
2022/03/20 08:37:01;;;;;;;7.00;5.15;;;;;;;;;;5042941;28;20025;-52
2022/03/20 08:39:27;;;;;;;10.07;5.35;;;;;;;;;;5042682;28;20030;-52
2022/03/20 08:41:53;;;;;;;10.95;5.40;;;;;;;;;;5033073;28;20440;-51
2022/03/20 08:44:20;;;;;;;7.78;5.05;;;;;;;;;;5039495;28;20040;-53
2022/03/20 08:46:46;;;;;;;9.13;6.18;;;;;;;;;;5038077;28;20029;-54
2022/03/20 08:49:12;;;;;;;9.10;5.60;;;;;;;;;;5030055;28;20401;-50
2022/03/20 08:51:39;;;;;;;13.07;6.43;;;;;;;;;;5026908;28;20038;-49
2022/03/20 08:54:05;;;;;;;12.70;7.63;;;;;;;;;;5031826;28;20033;-52
2022/03/20 08:56:33;;;;;;;11.05;6.38;;;;;;;;;;5039076;28;20029;-53
2022/03/20 08:58:59;;;;;;;11.73;7.00;;;;;;;;;;5034088;28;20471;-53
2022/03/20 09:01:25;;;;;;;12.30;6.13;;;;;;;;;;5033391;28;20104;-50
2022/03/20 09:03:52;;;;;;;9.95;5.32;;;;;;;;;;5040614;28;20036;-49
2022/03/20 09:06:21;;;;;;;10.23;6.60;;;;;;;;;;5032684;28;20431;-52
2022/03/20 09:08:48;;;;;;;14.02;7.70;;;;;;;;;;5044819;28;20037;-54
2022/03/20 09:11:15;;;;;;;9.80;6.90;;;;;;;;;;5028627;28;20050;-52
2022/03/20 09:13:41;;;;;;;10.15;6.70;;;;;;;;;;5027456;28;20021;-54
2022/03/20 09:18:59;;;;;;;12.15;7.22;;;;;;;;;;5027711;28;20408;-53
2022/03/20 09:21:25;;;;;;;12.18;8.13;;;;;;;;;;5026768;28;20040;-52
2022/03/20 09:23:52;;;;;;;11.70;7.05;;;;;;;;;;5034512;28;20025;-52
2022/03/20 09:26:18;;;;;;;12.45;7.60;;;;;;;;;;5039949;28;20507;-49
2022/03/20 09:28:44;;;;;;;13.70;7.32;;;;;;;;;;5034970;28;20072;-53
2022/03/20 09:31:11;;;;;;;10.95;6.90;;;;;;;;;;5026875;28;20088;-53
2022/03/20 09:33:37;;;;;;;10.52;7.20;;;;;;;;;;5030002;28;20112;-52
2022/03/20 09:36:04;;;;;;;13.27;7.70;;;;;;;;;;5027111;28;20052;-53
2022/03/20 09:38:31;;;;;;;14.48;7.95;;;;;;;;;;5026271;28;20029;-53
2022/03/20 09:40:59;;;;;;;10.38;6.65;;;;;;;;;;5026336;28;20099;-54
2022/03/20 09:43:25;;;;;;;10.90;7.15;;;;;;;;;;5026043;28;20103;-53
2022/03/20 09:45:53;;;;;;;13.55;6.50;;;;;;;;;;5043624;28;20043;-53
2022/03/20 09:48:19;;;;;;;11.25;6.63;;;;;;;;;;5041280;28;20075;-52
2022/03/20 09:50:46;;;;;;;11.30;6.90;;;;;;;;;;5027865;28;20034;-54
2022/03/20 09:53:12;;;;;;;11.52;6.55;;;;;;;;;;5043394;28;20048;-53
2022/03/20 09:55:38;;;;;;;10.45;6.55;;;;;;;;;;5029346;28;20084;-53
2022/03/20 09:58:04;;;;;;;11.43;6.97;;;;;;;;;;5028873;28;20063;-53
2022/03/20 10:00:32;;;;;;;9.82;6.90;;;;;;;;;;5039926;28;20503;-54
2022/03/20 10:02:58;;;;;;;13.15;6.10;;;;;;;;;;5026189;28;20442;-54
2022/03/20 10:05:28;;;;;;;8.93;5.90;;;;;;;;;;5028252;28;20559;-54
2022/03/20 10:07:54;;;;;;;12.85;6.50;;;;;;;;;;5030605;28;20091;-53
2022/03/20 10:10:28;;;;;;;8.88;5.45;;;;;;;;;;5031671;28;20025;-53
2022/03/20 10:12:59;;;;;;;8.50;6.05;;;;;;;;;;5036239;28;20108;-53
2022/03/20 10:15:32;;;;;;;9.73;5.43;;;;;;;;;;5036284;28;20037;-53
2022/03/20 10:18:06;;;;;;;7.90;5.25;;;;;;;;;;5046929;28;20087;-51
2022/03/20 10:20:36;;;;;;;7.27;4.80;;;;;;;;;;5030037;28;20481;-52
2022/03/20 10:23:02;;;;;;;8.85;5.70;;;;;;;;;;5029762;28;20124;-54
2022/03/20 10:25:28;;;;;;;12.40;7.20;;;;;;;;;;5031721;28;20033;-54
2022/03/20 10:27:57;;;;;;;10.93;6.18;;;;;;;;;;5029933;28;20742;-51
2022/03/20 10:30:23;;;;;;;12.18;7.38;;;;;;;;;;5035254;28;20025;-53
2022/03/20 10:32:50;;;;;;;10.60;7.57;;;;;;;;;;5038732;28;20028;-54
2022/03/20 10:35:17;;;;;;;8.65;6.43;;;;;;;;;;5048328;28;20029;-53
2022/03/20 10:37:55;;;;;;;15.50;7.10;;;;;;;;;;5048636;28;20039;-52
2022/03/20 10:40:28;;;;;;;11.77;7.45;;;;;;;;;;5050413;28;20488;-54
2022/03/20 10:43:14;;;;;;;11.63;7.30;;;;;;;;;;5028840;28;20120;-53
2022/03/20 10:45:50;;;;;;;10.07;6.57;;;;;;;;;;5029806;28;20036;-55
2022/03/20 10:48:19;;;;;;;13.23;7.47;;;;;;;;;;5035274;28;20443;-54
2022/03/20 10:50:47;;;;;;;12.32;7.20;;;;;;;;;;5029454;28;20113;-54
2022/03/20 10:53:13;;;;;;;9.13;6.00;;;;;;;;;;5033857;28;20025;-54
2022/03/20 10:55:39;;;;;;;11.85;6.65;;;;;;;;;;5029090;28;20846;-54
2022/03/20 10:58:18;;;;;;;11.35;6.70;;;;;;;;;;5041462;28;20029;-54
2022/03/20 11:00:47;;;;;;;11.88;6.68;;;;;;;;;;5037428;28;20037;-53
2022/03/20 11:03:16;;;;;;;12.40;7.35;;;;;;;;;;5029234;28;20033;-52
2022/03/20 11:05:43;;;;;;;10.65;6.93;;;;;;;;;;5029017;28;20108;-53
2022/03/20 11:08:09;;;;;;;10.48;6.97;;;;;;;;;;5032820;28;20039;-54
2022/03/20 11:10:35;;;;;;;9.07;6.30;;;;;;;;;;5029011;28;20088;-54
2022/03/20 11:13:02;;;;;;;7.90;5.80;;;;;;;;;;5029299;28;20025;-54
2022/03/20 11:15:29;;;;;;;9.35;5.97;;;;;;;;;;5032718;28;20481;-54
2022/03/20 11:17:57;;;;;;;10.88;5.97;;;;;;;;;;5030797;28;20076;-55
2022/03/20 11:20:24;;;;;;;11.18;7.03;;;;;;;;;;5029574;28;20029;-54
2022/03/20 11:22:51;;;;;;;11.35;6.40;;;;;;;;;;5029474;28;20109;-53
2022/03/20 11:25:22;;;;;;;9.98;6.07;;;;;;;;;;5032796;28;20036;-54
2022/03/20 11:27:52;;;;;;;8.18;5.70;;;;;;;;;;5028323;28;20432;-54
2022/03/20 11:30:19;;;;;;;8.95;5.68;;;;;;;;;;5031596;28;20037;-51
2022/03/20 11:32:47;;;;;;;8.35;5.97;;;;;;;;;;5031871;28;20031;-54
2022/03/20 11:35:14;;;;;;;12.55;7.00;;;;;;;;;;5029332;28;20105;-51
2022/03/20 11:37:43;;;;;;;20.77;11.52;;;;;;;;;;5044009;28;20029;-51
2022/03/20 11:40:09;;;;;;;20.52;10.93;;;;;;;;;;5028536;28;20025;-54
2022/03/20 11:42:37;;;;;;;16.30;8.73;;;;;;;;;;5027655;28;20033;-51
2022/03/20 11:45:03;;;;;;;16.17;7.90;;;;;;;;;;5036404;28;20040;-52
2022/03/20 11:47:30;;;;;;;12.30;7.28;;;;;;;;;;5034739;28;20119;-52
2022/03/20 11:50:16;;;;;;;12.43;7.60;;;;;;;;;;5029149;28;20045;-52
2022/03/20 11:52:50;;;;;;;10.82;6.32;;;;;;;;;;5035745;28;20112;-52
2022/03/20 11:55:25;;;;;;;8.55;5.78;;;;;;;;;;5033593;28;20029;-51
2022/03/20 11:57:51;;;;;;;8.45;5.15;;;;;;;;;;5039306;28;20033;-53
2022/03/20 12:00:19;;;;;;;8.18;5.63;;;;;;;;;;5032996;28;20071;-50
2022/03/20 12:02:54;;;;;;;8.52;5.22;;;;;;;;;;5041924;28;20144;-52
2022/03/20 12:05:39;;;;;;;9.02;6.03;;;;;;;;;;5040005;28;20555;-50
2022/03/20 12:08:24;;;;;;;8.75;5.53;;;;;;;;;;5032412;28;20029;-51
2022/03/20 12:10:57;;;;;;;9.65;5.43;;;;;;;;;;5032476;28;20048;-50
2022/03/20 12:13:23;;;;;;;10.15;6.35;;;;;;;;;;5043781;28;20021;-52
2022/03/20 12:15:49;;;;;;;13.60;7.45;;;;;;;;;;5044264;28;20480;-50
2022/03/20 12:18:15;;;;;;;11.38;6.95;;;;;;;;;;5056205;28;20029;-49
2022/03/20 12:21:04;;;;;;;8.70;5.78;;;;;;;;;;5033648;28;20035;-53
2022/03/20 12:23:40;;;;;;;7.82;4.57;;;;;;;;;;5033753;28;20210;-50
2022/03/20 12:26:30;;;;;;;6.03;4.43;;;;;;;;;;5046058;28;20499;-50
2022/03/20 12:29:17;;;;;;;10.75;4.47;;;;;;;;;;5046546;28;20029;-59
2022/03/20 12:31:59;;;;;;;8.23;4.70;;;;;;;;;;5032842;28;20147;-52
2022/03/20 12:34:25;;;;;;;6.40;4.32;;;;;;;;;;5030613;28;20091;-55
2022/03/20 12:36:52;;;;;;;7.88;5.00;;;;;;;;;;5027729;28;20031;-49
2022/03/20 12:39:55;;;;;;;10.20;5.05;;;;;;;;;;5027439;28;20025;-52
2022/03/20 12:42:24;;;;;;;9.77;6.50;;;;;;;;;;5020139;28;20041;-53
2022/03/20 12:44:52;;;;;;;13.55;6.82;;;;;;;;;;5022882;28;20073;-54
2022/03/20 12:47:22;;;;;;;10.30;7.15;;;;;;;;;;5034915;28;20048;-52
2022/03/20 12:49:53;;;;;;;8.07;6.32;;;;;;;;;;5027150;28;20067;-53
2022/03/20 12:52:19;;;;;;;9.50;6.35;;;;;;;;;;5030707;28;20021;-54
2022/03/20 12:54:55;;;;;;;9.15;5.65;;;;;;;;;;5026637;28;20029;-53
2022/03/20 12:57:40;;;;;;;8.25;5.13;;;;;;;;;;5027941;28;20113;-49
2022/03/20 13:00:12;;;;;;;9.60;6.00;;;;;;;;;;5028526;28;20515;-53
2022/03/20 13:02:57;;;;;;;12.52;6.30;;;;;;;;;;5030905;28;20055;-52
2022/03/20 13:05:24;;;;;;;9.60;6.07;;;;;;;;;;5047765;28;20033;-53
2022/03/20 13:07:53;;;;;;;11.75;6.03;;;;;;;;;;5042502;28;20029;-52
2022/03/20 13:10:23;;;;;;;7.28;5.75;;;;;;;;;;5028740;28;20036;-53
2022/03/20 13:12:51;;;;;;;7.45;5.43;;;;;;;;;;5045457;28;20112;-50
2022/03/20 13:15:27;;;;;;;6.55;5.20;;;;;;;;;;5044262;28;20111;-52
2022/03/20 13:17:53;;;;;;;6.40;4.60;;;;;;;;;;5027365;28;20083;-52
2022/03/20 13:20:21;;;;;;;6.43;4.53;;;;;;;;;;5044185;28;20107;-52
2022/03/20 13:22:47;;;;;;;9.85;4.72;;;;;;;;;;5046684;28;20036;-52
2022/03/20 13:25:20;;;;;;;6.80;4.53;;;;;;;;;;5041353;28;20057;-51
2022/03/20 13:27:48;;;;;;;7.90;4.93;;;;;;;;;;5040997;28;20535;-49
2022/03/20 13:30:17;;;;;;;9.23;5.72;;;;;;;;;;5033015;28;20025;-50
2022/03/20 13:32:44;;;;;;;10.45;6.35;;;;;;;;;;5027152;28;20030;-49
2022/03/20 13:35:11;;;;;;;11.90;7.15;;;;;;;;;;5026955;28;20026;-49
2022/03/20 13:37:37;;;;;;;11.35;7.00;;;;;;;;;;5025328;28;20838;-50
2022/03/20 13:40:04;;;;;;;10.18;6.70;;;;;;;;;;5043373;28;20095;-52
2022/03/20 13:42:32;;;;;;;9.80;5.88;;;;;;;;;;5034671;28;20033;-50
2022/03/20 13:44:59;;;;;;;10.05;6.78;;;;;;;;;;5040061;28;20408;-52
2022/03/20 13:47:25;;;;;;;13.13;6.57;;;;;;;;;;5031874;28;20034;-51
2022/03/20 13:49:54;;;;;;;9.52;6.30;;;;;;;;;;5032625;28;20132;-52
2022/03/20 13:55:04;;;;;;;12.30;6.50;;;;;;;;;;5046991;28;20032;-54
2022/03/20 13:57:31;;;;;;;7.50;5.13;;;;;;;;;;5031699;28;20110;-54
2022/03/20 14:00:00;;;;;;;8.02;5.93;;;;;;;;;;5034670;28;20501;-51
2022/03/20 14:02:36;;;;;;;9.13;6.13;;;;;;;;;;5048793;28;20040;-53
2022/03/20 14:05:10;;;;;;;7.25;5.03;;;;;;;;;;5037704;28;20029;-53
2022/03/20 14:07:37;;;;;;;7.07;4.60;;;;;;;;;;5029192;28;20112;-54
2022/03/20 14:10:15;;;;;;;7.22;4.95;;;;;;;;;;5029428;28;20029;-54
2022/03/20 14:12:42;;;;;;;8.40;5.40;;;;;;;;;;5029866;28;20079;-54
2022/03/20 14:15:11;;;;;;;7.63;4.60;;;;;;;;;;5031172;28;20025;-53
2022/03/20 14:17:46;;;;;;;6.53;4.55;;;;;;;;;;5029741;28;20029;-53
2022/03/20 14:20:12;;;;;;;9.05;5.68;;;;;;;;;;5040881;28;20464;-53
2022/03/20 14:22:55;;;;;;;10.73;5.35;;;;;;;;;;5030691;28;20034;-52
2022/03/20 14:25:36;;;;;;;7.85;5.20;;;;;;;;;;5045381;28;20029;-53
2022/03/20 14:28:02;;;;;;;5.63;4.20;;;;;;;;;;5048398;28;20023;-53
2022/03/20 14:41:31;;;;;;;11.52;6.90;;;;;;;;;;5029605;28;20044;-54
2022/03/20 14:44:04;;;;;;;11.65;7.35;;;;;;;;;;5034453;28;20036;-51
2022/03/20 14:46:30;;;;;;;11.57;6.68;;;;;;;;;;5040799;28;20411;-51
2022/03/20 14:48:57;;;;;;;9.60;6.85;;;;;;;;;;5029807;28;20467;-53
2022/03/20 14:51:23;;;;;;;9.55;6.35;;;;;;;;;;5030351;28;20485;-53
2022/03/20 14:53:49;;;;;;;11.10;6.53;;;;;;;;;;5037068;28;20077;-53
2022/03/20 14:56:15;;;;;;;10.32;6.10;;;;;;;;;;5049593;28;20544;-53
2022/03/20 14:58:43;;;;;;;10.63;6.97;;;;;;;;;;5045072;28;20561;-52
2022/03/20 15:01:10;;;;;;;10.10;6.13;;;;;;;;;;5033113;28;20528;-53
2022/03/20 15:03:36;;;;;;;11.70;7.20;;;;;;;;;;5033912;28;20068;-52
2022/03/20 15:06:03;;;;;;;10.73;6.53;;;;;;;;;;5039960;28;20072;-52
2022/03/20 15:11:26;;;;;;;9.10;5.80;;;;;;;;;;5045388;28;20060;-51
2022/03/20 15:13:54;;;;;;;9.82;5.90;;;;;;;;;;5033624;28;20602;-53
2022/03/20 15:16:21;;;;;;;10.60;5.93;;;;;;;;;;5029308;28;20025;-52
2022/03/20 15:18:48;;;;;;;8.35;5.22;;;;;;;;;;5048819;28;20043;-53
2022/03/20 15:21:15;;;;;;;6.80;4.78;;;;;;;;;;5030075;28;20037;-54
2022/03/20 15:23:41;;;;;;;6.35;4.43;;;;;;;;;;5028314;28;20030;-54
2022/03/20 15:26:07;;;;;;;7.70;4.50;;;;;;;;;;5041488;28;20033;-53
2022/03/20 15:28:33;;;;;;;5.95;4.47;;;;;;;;;;5047804;28;20111;-52
2022/03/20 15:30:59;;;;;;;6.57;4.53;;;;;;;;;;5048252;28;20037;-55
2022/03/20 15:33:26;;;;;;;5.70;3.97;;;;;;;;;;5036646;28;20078;-55
2022/03/20 15:35:52;;;;;;;5.70;3.53;;;;;;;;;;5030144;28;20036;-54
2022/03/20 15:38:18;;;;;;;6.07;3.42;;;;;;;;;;5028414;28;20034;-52